createdAt,value
2022-10-12T02:00:49.269Z,24.50
2022-10-12T02:01:09.914Z,23.00
2022-10-12T02:01:30.555Z,22.50
2022-10-12T02:01:51.158Z,22.30
2022-10-12T02:02:11.559Z,20.10
2022-10-12T02:02:32.141Z,20.30
2022-10-12T02:02:52.722Z,18.70
2022-10-12T02:03:13.294Z,19.10
2022-10-12T02:03:33.690Z,23.70
2022-10-12T02:03:54.278Z,20.70
2022-10-12T02:04:14.670Z,20.30
2022-10-12T02:04:35.252Z,20.90
2022-10-12T02:04:55.834Z,21.30
2022-10-12T02:05:16.435Z,25.60
2022-10-12T02:05:37.021Z,21.40
2022-10-12T02:05:57.605Z,21.60
2022-10-12T02:06:18.186Z,19.90
2022-10-12T02:06:38.767Z,19.20
2022-10-12T02:06:59.349Z,22.50
2022-10-12T02:07:19.937Z,22.20
2022-10-12T02:07:40.754Z,23.90
2022-10-12T02:08:00.912Z,22.40
2022-10-12T02:08:21.491Z,22.50
2022-10-12T02:08:42.079Z,23.10
2022-10-12T02:09:02.660Z,20.30
2022-10-12T02:09:23.239Z,22.60
2022-10-12T02:09:43.822Z,21.50
2022-10-12T02:10:04.401Z,21.50
2022-10-12T02:10:25.007Z,19.30
2022-10-12T02:10:45.610Z,21.30
2022-10-12T02:11:05.982Z,19.20
2022-10-12T02:11:26.568Z,20.80
2022-10-12T02:11:47.154Z,19.30
2022-10-12T02:12:07.730Z,19.50
2022-10-12T02:12:28.315Z,20.40
2022-10-12T02:12:48.901Z,18.40
2022-10-12T02:13:09.482Z,19.50
2022-10-12T02:13:30.065Z,20.60
2022-10-12T02:13:50.649Z,20.20
2022-10-12T02:14:11.230Z,21.30
2022-10-12T02:14:31.810Z,21.90
2022-10-12T02:14:52.392Z,18.60
2022-10-12T02:15:12.976Z,19.70
2022-10-12T02:15:33.576Z,21.00
2022-10-12T02:15:54.188Z,20.80
2022-10-12T02:16:14.751Z,17.60
2022-10-12T02:16:35.329Z,16.50
2022-10-12T02:16:55.907Z,20.00
2022-10-12T02:17:16.488Z,21.60
2022-10-12T02:17:37.453Z,20.70
2022-10-12T02:17:58.241Z,19.20
2022-10-12T02:18:18.830Z,21.90
2022-10-12T02:18:39.409Z,24.20
2022-10-12T02:18:59.991Z,21.00
2022-10-12T02:19:20.578Z,16.10
2022-10-12T02:19:41.162Z,19.00
2022-10-12T02:20:01.741Z,20.50
2022-10-12T02:20:22.329Z,18.60
2022-10-12T02:20:42.920Z,21.10
2022-10-12T02:21:03.504Z,23.40
2022-10-12T02:21:24.087Z,20.70
2022-10-12T02:21:44.670Z,21.90
2022-10-12T02:22:05.254Z,22.30
2022-10-12T02:22:25.834Z,25.20
2022-10-12T02:22:46.414Z,24.00
2022-10-12T02:23:06.993Z,25.10
2022-10-12T02:23:27.575Z,19.50
2022-10-12T02:23:48.157Z,19.20
2022-10-12T02:24:08.738Z,19.50
2022-10-12T02:24:29.322Z,21.20
2022-10-12T02:24:49.899Z,20.20
2022-10-12T02:25:10.484Z,20.40
2022-10-12T02:25:31.063Z,19.90
2022-10-12T02:25:51.659Z,21.70
2022-10-12T02:26:12.242Z,20.50
2022-10-12T02:26:32.827Z,21.30
2022-10-12T02:26:53.408Z,22.40
2022-10-12T02:27:13.990Z,26.50
2022-10-12T02:27:34.387Z,21.00
2022-10-12T02:27:54.965Z,20.30
2022-10-12T02:28:15.639Z,18.30
2022-10-12T02:28:36.265Z,19.40
2022-10-12T02:28:56.816Z,21.80
2022-10-12T02:29:17.397Z,20.00
2022-10-12T02:29:37.997Z,20.40
2022-10-12T02:29:58.580Z,20.50
2022-10-12T02:30:21.128Z,20.20
2022-10-12T02:30:41.958Z,20.60
2022-10-12T02:31:02.562Z,20.20
2022-10-12T02:31:23.125Z,20.00
2022-10-12T02:31:43.705Z,21.70
2022-10-12T02:32:04.292Z,20.60
2022-10-12T02:32:24.874Z,22.50
2022-10-12T02:32:45.461Z,24.10
2022-10-12T02:33:06.037Z,22.30
2022-10-12T02:33:26.619Z,19.70
2022-10-12T02:33:47.205Z,21.00
2022-10-12T02:34:07.596Z,19.90
2022-10-12T02:34:28.180Z,21.10
2022-10-12T02:34:48.765Z,22.30
2022-10-12T02:35:09.344Z,20.70
2022-10-12T02:35:29.930Z,21.40
2022-10-12T02:35:50.530Z,21.50
2022-10-12T02:36:11.112Z,20.80
2022-10-12T02:36:31.505Z,18.40
2022-10-12T02:36:52.087Z,20.00
2022-10-12T02:37:12.671Z,21.70
2022-10-12T02:37:33.250Z,20.70
2022-10-12T02:37:53.841Z,21.60
2022-10-12T02:38:14.421Z,20.00
2022-10-12T02:38:35.001Z,21.60
2022-10-12T02:38:55.599Z,25.30
2022-10-12T02:39:16.174Z,23.70
2022-10-12T02:39:36.748Z,21.40
2022-10-12T02:39:57.335Z,17.60
2022-10-12T02:40:17.920Z,19.70
2022-10-12T02:40:38.492Z,19.30
2022-10-12T02:40:59.088Z,20.40
2022-10-12T02:41:19.669Z,19.60
2022-10-12T02:41:40.250Z,19.50
2022-10-12T02:42:00.834Z,18.40
2022-10-12T02:42:21.414Z,19.90
2022-10-12T02:43:08.869Z,19.60
2022-10-12T02:43:11.139Z,20.30
2022-10-12T02:43:22.802Z,18.90
2022-10-12T02:43:43.421Z,22.60
2022-10-12T02:44:04.003Z,18.70
2022-10-12T02:44:24.586Z,17.80
2022-10-12T02:44:45.172Z,17.70
2022-10-12T02:45:05.571Z,17.40
2022-10-12T02:45:26.146Z,18.70
2022-10-12T02:45:46.733Z,19.70
2022-10-12T02:46:07.351Z,21.70
2022-10-12T02:46:27.911Z,20.30
2022-10-12T02:46:48.493Z,19.20
2022-10-12T02:47:09.071Z,17.00
2022-10-12T02:47:29.465Z,17.40
2022-10-12T02:47:50.047Z,19.10
2022-10-12T02:48:10.447Z,17.40
2022-10-12T02:48:31.030Z,17.70
2022-10-12T02:48:51.609Z,19.90
2022-10-12T02:49:12.193Z,18.50
2022-10-12T02:49:32.779Z,17.90
2022-10-12T02:49:53.355Z,18.20
2022-10-12T02:50:13.938Z,18.50
2022-10-12T02:50:34.520Z,18.20
2022-10-12T02:50:55.099Z,20.30
2022-10-12T02:51:15.695Z,20.80
2022-10-12T02:51:36.277Z,18.30
2022-10-12T02:51:56.859Z,20.30
2022-10-12T02:52:17.439Z,18.60
2022-10-12T02:52:38.023Z,15.40
2022-10-12T02:52:58.602Z,16.40
2022-10-12T02:53:19.014Z,18.40
2022-10-12T02:53:39.583Z,18.20
2022-10-12T02:54:00.174Z,16.50
2022-10-12T02:54:20.755Z,21.20
2022-10-12T02:54:41.334Z,20.80
2022-10-12T02:55:01.915Z,23.00
2022-10-12T02:55:22.511Z,20.00
2022-10-12T02:55:43.081Z,18.60
2022-10-12T02:56:03.677Z,17.70
2022-10-12T02:56:24.259Z,15.90
2022-10-12T02:56:44.835Z,16.60
2022-10-12T02:57:05.421Z,15.20
2022-10-12T02:57:26.007Z,15.70
2022-10-12T02:57:46.587Z,17.40
2022-10-12T02:58:07.168Z,18.50
2022-10-12T02:58:27.748Z,16.40
2022-10-12T02:58:48.333Z,15.50
2022-10-12T02:59:08.910Z,18.20
2022-10-12T02:59:29.495Z,18.50
2022-10-12T02:59:50.078Z,18.20
2022-10-12T03:00:10.660Z,15.30
2022-10-12T03:00:31.242Z,15.70
2022-10-12T03:00:51.862Z,16.10
2022-10-12T03:01:12.498Z,18.40
2022-10-12T03:01:33.125Z,18.90
2022-10-12T03:01:53.721Z,17.20
2022-10-12T03:02:14.302Z,17.70
2022-10-12T03:02:34.885Z,17.50
2022-10-12T03:02:55.464Z,17.70
2022-10-12T03:03:16.047Z,16.60
2022-10-12T03:03:36.632Z,17.10
2022-10-12T03:03:57.217Z,16.20
2022-10-12T03:04:17.796Z,16.60
2022-10-12T03:04:38.380Z,15.50
2022-10-12T03:04:58.965Z,17.90
2022-10-12T03:05:19.547Z,18.60
2022-10-12T03:05:40.127Z,16.30
2022-10-12T03:06:00.703Z,14.10
2022-10-12T03:06:21.302Z,17.80
2022-10-12T03:06:41.882Z,16.60
2022-10-12T03:07:02.467Z,15.70
2022-10-12T03:07:22.864Z,16.90
2022-10-12T03:07:43.443Z,17.70
2022-10-12T03:08:03.844Z,17.60
2022-10-12T03:08:24.419Z,13.70
2022-10-12T03:08:45.001Z,18.50
2022-10-12T03:09:05.586Z,18.00
2022-10-12T03:09:25.980Z,16.60
2022-10-12T03:09:46.597Z,14.70
2022-10-12T03:10:07.183Z,16.00
2022-10-12T03:10:27.764Z,17.10
2022-10-12T03:10:48.349Z,16.80
2022-10-12T03:11:08.951Z,14.70
2022-10-12T03:11:29.534Z,17.00
2022-10-12T03:11:50.116Z,15.50
2022-10-12T03:12:10.697Z,16.60
2022-10-12T03:12:31.282Z,16.70
2022-10-12T03:12:51.871Z,15.90
2022-10-12T03:13:12.455Z,14.80
2022-10-12T03:13:33.033Z,16.40
2022-10-12T03:13:53.429Z,17.00
2022-10-12T03:14:14.009Z,18.90
2022-10-12T03:14:34.592Z,18.30
2022-10-12T03:14:55.176Z,18.60
2022-10-12T03:15:15.577Z,18.10
2022-10-12T03:15:36.158Z,16.80
2022-10-12T03:15:56.741Z,17.30
2022-10-12T03:16:17.179Z,19.70
2022-10-12T03:16:37.742Z,17.60
2022-10-12T03:16:58.324Z,15.20
2022-10-12T03:17:18.909Z,14.50
2022-10-12T03:17:40.027Z,19.80
2022-10-12T03:17:59.884Z,20.80
2022-10-12T03:18:20.464Z,18.60
2022-10-12T03:18:41.043Z,17.90
2022-10-12T03:19:01.624Z,22.00
2022-10-12T03:19:22.206Z,21.00
2022-10-12T03:19:42.787Z,17.60
2022-10-12T03:20:03.367Z,16.80
2022-10-12T03:20:23.948Z,17.70
2022-10-12T03:20:44.531Z,18.00
2022-10-12T03:21:05.118Z,18.40
2022-10-12T03:21:25.714Z,19.80
2022-10-12T03:21:46.301Z,22.30
2022-10-12T03:22:06.884Z,22.00
2022-10-12T03:22:27.462Z,19.00
2022-10-12T03:22:48.047Z,21.90
2022-10-12T03:23:08.632Z,18.70
2022-10-12T03:23:29.213Z,17.90
2022-10-12T03:23:49.798Z,18.10
2022-10-12T03:24:10.385Z,18.40
2022-10-12T03:24:30.965Z,18.10
2022-10-12T03:24:51.552Z,19.90
2022-10-12T03:25:12.135Z,21.90
2022-10-12T03:25:32.720Z,22.20
2022-10-12T03:25:53.299Z,20.50
2022-10-12T03:26:13.902Z,17.20
2022-10-12T03:26:34.483Z,21.10
2022-10-12T03:26:55.071Z,18.80
2022-10-12T03:27:15.649Z,19.10
2022-10-12T03:27:36.693Z,17.20
2022-10-12T03:27:57.475Z,18.90
2022-10-12T03:28:17.905Z,21.80
2022-10-12T03:28:38.560Z,20.20
2022-10-12T03:28:59.237Z,17.80
2022-10-12T03:29:19.800Z,17.50
2022-10-12T03:29:40.195Z,18.80
2022-10-12T03:30:00.777Z,21.90
2022-10-12T03:30:21.361Z,21.30
2022-10-12T03:30:41.944Z,21.20
2022-10-12T03:31:02.528Z,18.60
2022-10-12T03:31:23.147Z,20.10
2022-10-12T03:31:43.708Z,22.20
2022-10-12T03:32:04.286Z,16.80
2022-10-12T03:32:24.873Z,18.70
2022-10-12T03:32:45.270Z,19.20
2022-10-12T03:33:05.660Z,18.40
2022-10-12T03:33:26.245Z,21.20
2022-10-12T03:33:46.833Z,21.30
2022-10-12T03:34:07.419Z,20.40
2022-10-12T03:34:28.003Z,19.40
2022-10-12T03:34:48.401Z,17.30
2022-10-12T03:35:08.981Z,18.70
2022-10-12T03:35:29.563Z,19.40
2022-10-12T03:35:50.146Z,19.70
2022-10-12T03:36:10.727Z,17.60
2022-10-12T03:36:31.329Z,18.40
2022-10-12T03:36:51.723Z,19.10
2022-10-12T03:37:12.304Z,19.20
2022-10-12T03:37:32.884Z,17.20
2022-10-12T03:37:53.469Z,20.60
2022-10-12T03:38:14.052Z,18.20
2022-10-12T03:38:34.642Z,17.60
2022-10-12T03:38:55.219Z,16.50
2022-10-12T03:39:15.614Z,16.70
2022-10-12T03:39:36.197Z,19.90
2022-10-12T03:39:56.779Z,17.60
2022-10-12T03:40:17.364Z,16.30
2022-10-12T03:40:37.945Z,20.00
2022-10-12T03:41:01.782Z,19.10
2022-10-12T03:41:18.951Z,18.70
2022-10-12T03:41:39.537Z,18.10
2022-10-12T03:42:00.121Z,17.80
2022-10-12T03:42:20.695Z,17.20
2022-10-12T03:42:41.086Z,18.50
2022-10-12T03:43:01.664Z,15.10
2022-10-12T03:43:22.251Z,18.00
2022-10-12T03:43:42.829Z,17.00
2022-10-12T03:44:03.412Z,16.00
2022-10-12T03:44:23.996Z,17.90
2022-10-12T03:44:44.396Z,19.30
2022-10-12T03:45:04.971Z,19.70
2022-10-12T03:45:25.557Z,15.40
2022-10-12T03:45:46.134Z,17.10
2022-10-12T03:46:06.717Z,17.40
2022-10-12T03:46:27.343Z,16.70
2022-10-12T03:46:47.897Z,16.30
2022-10-12T03:47:08.483Z,16.70
2022-10-12T03:47:29.064Z,18.00
2022-10-12T03:47:49.645Z,17.90
2022-10-12T03:48:10.229Z,16.10
2022-10-12T03:48:30.813Z,17.50
2022-10-12T03:48:51.393Z,19.70
2022-10-12T03:49:11.793Z,18.50
2022-10-12T03:49:32.376Z,18.70
2022-10-12T03:49:52.957Z,16.70
2022-10-12T03:50:13.543Z,16.80
2022-10-12T03:50:34.147Z,16.20
2022-10-12T03:50:54.734Z,16.80
2022-10-12T03:51:15.315Z,19.00
2022-10-12T03:51:35.930Z,19.50
2022-10-12T03:51:56.513Z,17.10
2022-10-12T03:52:17.094Z,19.00
2022-10-12T03:52:37.672Z,16.20
2022-10-12T03:52:58.256Z,17.10
2022-10-12T03:53:18.843Z,16.80
2022-10-12T03:53:45.013Z,21.20
2022-10-12T03:53:59.829Z,23.60
2022-10-12T03:54:20.410Z,20.90
2022-10-12T03:54:40.987Z,16.00
2022-10-12T03:55:01.578Z,17.90
2022-10-12T03:55:22.176Z,18.00
2022-10-12T03:55:42.755Z,18.30
2022-10-12T03:56:03.336Z,17.90
2022-10-12T03:56:23.929Z,17.90
2022-10-12T03:56:44.510Z,19.30
2022-10-12T03:57:05.090Z,17.90
2022-10-12T03:57:25.662Z,17.80
2022-10-12T03:57:46.249Z,18.40
2022-10-12T03:58:06.828Z,17.70
2022-10-12T03:58:27.414Z,16.90
2022-10-12T03:58:47.996Z,20.40
2022-10-12T03:59:08.392Z,18.80
2022-10-12T03:59:28.971Z,18.70
2022-10-12T03:59:49.557Z,16.90
2022-10-12T04:00:10.137Z,19.40
2022-10-12T04:00:30.718Z,16.20
2022-10-12T04:00:51.111Z,17.70
2022-10-12T04:01:11.704Z,16.00
2022-10-12T04:01:32.441Z,15.10
2022-10-12T04:01:53.096Z,15.60
2022-10-12T04:02:16.941Z,17.00
2022-10-12T04:02:37.864Z,15.60
2022-10-12T04:02:58.259Z,16.10
2022-10-12T04:03:18.839Z,16.70
2022-10-12T04:03:39.420Z,16.50
2022-10-12T04:04:00.001Z,15.60
2022-10-12T04:04:20.580Z,17.40
2022-10-12T04:04:41.010Z,18.30
2022-10-12T04:05:01.589Z,17.90
2022-10-12T04:05:22.176Z,18.10
2022-10-12T04:05:42.760Z,17.60
2022-10-12T04:06:03.149Z,16.50
2022-10-12T04:06:23.542Z,17.50
2022-10-12T04:06:44.138Z,20.00
2022-10-12T04:07:04.719Z,16.10
2022-10-12T04:07:25.304Z,14.40
2022-10-12T04:07:45.883Z,17.00
2022-10-12T04:08:06.465Z,18.80
2022-10-12T04:08:27.049Z,16.00
2022-10-12T04:08:50.807Z,16.30
2022-10-12T04:09:11.702Z,14.10
2022-10-12T04:09:32.283Z,17.40
2022-10-12T04:09:52.860Z,16.00
2022-10-12T04:10:13.452Z,14.90
2022-10-12T04:10:34.040Z,19.20
2022-10-12T04:10:54.629Z,18.70
2022-10-12T04:11:15.212Z,17.00
2022-10-12T04:11:35.805Z,17.10
2022-10-12T04:11:56.381Z,19.70
2022-10-12T04:12:16.961Z,21.20
2022-10-12T04:12:37.544Z,17.90
2022-10-12T04:12:58.127Z,16.80
2022-10-12T04:13:18.707Z,17.80
2022-10-12T04:13:39.288Z,17.20
2022-10-12T04:13:59.684Z,16.30
2022-10-12T04:14:20.269Z,18.70
2022-10-12T04:14:40.852Z,15.30
2022-10-12T04:15:01.433Z,16.20
2022-10-12T04:15:42.586Z,17.10
2022-10-12T04:16:03.165Z,17.00
2022-10-12T04:16:26.114Z,18.80
2022-10-12T04:16:44.198Z,17.80
2022-10-12T04:17:04.760Z,18.20
2022-10-12T04:17:25.342Z,17.40
2022-10-12T04:17:45.927Z,16.20
2022-10-12T04:18:06.506Z,18.00
2022-10-12T04:18:27.117Z,18.60
2022-10-12T04:18:47.703Z,20.70
2022-10-12T04:19:08.288Z,19.00
2022-10-12T04:19:28.868Z,15.60
2022-10-12T04:19:49.451Z,19.00
2022-10-12T04:20:10.031Z,20.60
2022-10-12T04:20:30.429Z,16.90
2022-10-12T04:20:51.019Z,15.80
2022-10-12T04:21:11.591Z,15.00
2022-10-12T04:21:32.190Z,17.00
2022-10-12T04:21:52.772Z,14.80
2022-10-12T04:22:13.355Z,14.60
2022-10-12T04:22:33.934Z,16.20
2022-10-12T04:22:54.328Z,15.80
2022-10-12T04:23:14.912Z,17.60
2022-10-12T04:23:35.494Z,16.90
2022-10-12T04:23:56.074Z,18.30
2022-10-12T04:24:16.656Z,18.50
2022-10-12T04:24:37.235Z,16.10
2022-10-12T04:24:57.819Z,17.90
2022-10-12T04:25:18.403Z,17.50
2022-10-12T04:25:38.982Z,20.80
2022-10-12T04:25:59.569Z,18.90
2022-10-12T04:26:20.158Z,17.10
2022-10-12T04:26:40.754Z,16.40
2022-10-12T04:27:01.331Z,18.50
2022-10-12T04:27:21.914Z,17.50
2022-10-12T04:27:42.493Z,17.80
2022-10-12T04:28:03.073Z,18.40
2022-10-12T04:28:23.687Z,16.30
2022-10-12T04:28:44.377Z,17.00
2022-10-12T04:29:04.991Z,17.60
2022-10-12T04:29:25.567Z,16.60
2022-10-12T04:29:45.963Z,16.80
2022-10-12T04:30:06.547Z,17.10
2022-10-12T04:30:27.123Z,15.90
2022-10-12T04:30:47.750Z,15.70
2022-10-12T04:31:08.293Z,15.00
2022-10-12T04:31:28.878Z,16.00
2022-10-12T04:31:49.516Z,15.10
2022-10-12T04:32:12.506Z,14.90
2022-10-12T04:32:33.391Z,17.10
2022-10-12T04:32:53.976Z,16.70
2022-10-12T04:33:14.560Z,15.90
2022-10-12T04:33:35.143Z,13.20
2022-10-12T04:33:55.735Z,14.90
2022-10-12T04:34:16.309Z,13.30
2022-10-12T04:34:36.887Z,17.30
2022-10-12T04:34:57.471Z,17.20
2022-10-12T04:35:18.051Z,16.50
2022-10-12T04:35:38.632Z,13.80
2022-10-12T04:35:59.213Z,15.90
2022-10-12T04:36:19.797Z,16.30
2022-10-12T04:36:40.392Z,18.50
2022-10-12T04:37:00.979Z,16.20
2022-10-12T04:37:21.373Z,14.40
2022-10-12T04:37:41.953Z,16.30
2022-10-12T04:38:02.536Z,16.00
2022-10-12T04:38:23.141Z,16.30
2022-10-12T04:38:43.723Z,17.70
2022-10-12T04:39:04.304Z,14.40
2022-10-12T04:39:24.888Z,14.70
2022-10-12T04:39:45.489Z,16.10
2022-10-12T04:40:06.056Z,18.10
2022-10-12T04:40:26.646Z,14.60
2022-10-12T04:40:47.226Z,14.30
2022-10-12T04:41:07.814Z,13.80
2022-10-12T04:41:28.397Z,13.70
2022-10-12T04:41:48.992Z,16.00
2022-10-12T04:42:09.577Z,14.50
2022-10-12T04:42:30.160Z,14.50
2022-10-12T04:42:50.555Z,12.50
2022-10-12T04:43:11.137Z,14.10
2022-10-12T04:43:31.718Z,15.60
2022-10-12T04:43:52.300Z,16.80
2022-10-12T04:44:12.880Z,15.80
2022-10-12T04:44:33.463Z,12.80
2022-10-12T04:44:54.048Z,13.50
2022-10-12T04:45:14.717Z,12.30
2022-10-12T04:45:35.298Z,14.50
2022-10-12T04:45:55.884Z,13.30
2022-10-12T04:46:16.467Z,12.80
2022-10-12T04:46:37.060Z,13.40
2022-10-12T04:46:57.665Z,14.20
2022-10-12T04:47:18.223Z,14.50
2022-10-12T04:47:39.214Z,12.70
2022-10-12T04:48:00.033Z,13.50
2022-10-12T04:48:20.618Z,13.00
2022-10-12T04:48:41.208Z,13.80
2022-10-12T04:49:01.789Z,13.90
2022-10-12T04:49:22.372Z,14.20
2022-10-12T04:49:42.954Z,16.50
2022-10-12T04:50:03.353Z,16.10
2022-10-12T04:50:28.953Z,14.80
2022-10-12T04:50:44.154Z,14.90
2022-10-12T04:51:04.538Z,16.30
2022-10-12T04:51:25.123Z,12.10
2022-10-12T04:51:45.719Z,14.70
2022-10-12T04:52:06.305Z,14.10
2022-10-12T04:52:26.886Z,14.10
2022-10-12T04:52:47.474Z,12.30
2022-10-12T04:53:08.052Z,12.60
2022-10-12T04:53:28.652Z,13.20
2022-10-12T04:53:49.220Z,12.70
2022-10-12T04:54:09.805Z,14.90
2022-10-12T04:54:30.389Z,14.10
2022-10-12T04:54:50.972Z,12.90
2022-10-12T04:55:11.558Z,12.80
2022-10-12T04:55:32.141Z,13.90
2022-10-12T04:55:52.726Z,12.90
2022-10-12T04:56:13.312Z,12.40
2022-10-12T04:56:33.893Z,12.90
2022-10-12T04:56:54.490Z,14.00
2022-10-12T04:57:15.075Z,12.40
2022-10-12T04:57:36.029Z,12.50
2022-10-12T04:57:56.750Z,12.00
2022-10-12T04:58:17.339Z,14.70
2022-10-12T04:58:37.914Z,13.20
2022-10-12T04:58:58.502Z,12.50
2022-10-12T04:59:19.086Z,11.30
2022-10-12T04:59:39.668Z,12.40
2022-10-12T05:00:00.253Z,11.90
2022-10-12T05:00:20.647Z,11.50
2022-10-12T05:00:41.236Z,11.30
2022-10-12T05:01:02.019Z,11.40
2022-10-12T05:01:22.675Z,13.30
2022-10-12T05:01:43.382Z,12.50
2022-10-12T05:02:03.973Z,12.10
2022-10-12T05:02:24.535Z,14.60
2022-10-12T05:02:45.119Z,15.90
2022-10-12T05:03:05.703Z,12.60
2022-10-12T05:03:26.278Z,12.70
2022-10-12T05:03:46.861Z,14.80
2022-10-12T05:04:07.446Z,14.60
2022-10-12T05:04:28.089Z,12.30
2022-10-12T05:04:48.644Z,11.30
2022-10-12T05:05:09.230Z,13.70
2022-10-12T05:05:29.809Z,15.20
2022-10-12T05:05:50.394Z,17.70
2022-10-12T05:06:10.979Z,14.70
2022-10-12T05:06:31.558Z,12.50
2022-10-12T05:06:52.156Z,11.50
2022-10-12T05:07:12.740Z,14.20
2022-10-12T05:07:33.317Z,12.60
2022-10-12T05:07:53.900Z,14.80
2022-10-12T05:08:14.488Z,11.10
2022-10-12T05:08:35.070Z,12.10
2022-10-12T05:08:55.464Z,12.50
2022-10-12T05:09:17.126Z,12.00
2022-10-12T05:09:38.017Z,11.10
2022-10-12T05:09:58.599Z,11.70
2022-10-12T05:10:19.177Z,11.10
2022-10-12T05:10:39.764Z,12.10
2022-10-12T05:11:00.346Z,14.00
2022-10-12T05:11:20.927Z,12.20
2022-10-12T05:11:41.519Z,11.30
2022-10-12T05:12:02.102Z,15.30
2022-10-12T05:12:22.689Z,15.60
2022-10-12T05:12:43.269Z,13.40
2022-10-12T05:13:03.849Z,13.40
2022-10-12T05:13:24.447Z,12.00
2022-10-12T05:13:45.036Z,12.50
2022-10-12T05:14:05.623Z,14.70
2022-10-12T05:14:26.202Z,14.80
2022-10-12T05:14:46.600Z,12.50
2022-10-12T05:15:07.180Z,12.50
2022-10-12T05:15:27.772Z,15.30
2022-10-12T05:15:48.355Z,13.20
2022-10-12T05:16:08.937Z,11.50
2022-10-12T05:16:29.517Z,12.50
2022-10-12T05:16:50.119Z,14.70
2022-10-12T05:17:10.717Z,15.10
2022-10-12T05:17:31.280Z,12.10
2022-10-12T05:17:51.854Z,12.80
2022-10-12T05:18:12.440Z,13.60
2022-10-12T05:18:33.019Z,15.40
2022-10-12T05:18:53.608Z,12.90
2022-10-12T05:19:14.196Z,11.20
2022-10-12T05:19:34.780Z,13.10
2022-10-12T05:19:55.357Z,13.50
2022-10-12T05:20:15.940Z,13.50
2022-10-12T05:20:36.516Z,13.60
2022-10-12T05:20:57.384Z,11.50
2022-10-12T05:21:17.497Z,13.80
2022-10-12T05:21:38.073Z,15.30
2022-10-12T05:21:58.669Z,12.50
2022-10-12T05:22:19.262Z,12.30
2022-10-12T05:22:39.831Z,13.10
2022-10-12T05:23:00.226Z,11.10
2022-10-12T05:23:20.803Z,12.60
2022-10-12T05:23:41.391Z,13.10
2022-10-12T05:24:01.968Z,11.70
2022-10-12T05:24:22.551Z,13.20
2022-10-12T05:24:43.138Z,14.00
2022-10-12T05:25:03.716Z,11.00
2022-10-12T05:25:24.109Z,10.30
2022-10-12T05:25:44.706Z,14.30
2022-10-12T05:26:05.084Z,14.00
2022-10-12T05:26:25.668Z,13.40
2022-10-12T05:26:46.265Z,12.00
2022-10-12T05:27:06.847Z,12.20
2022-10-12T05:27:27.427Z,12.70
2022-10-12T05:27:48.015Z,12.60
2022-10-12T05:28:08.599Z,14.40
2022-10-12T05:28:29.226Z,12.70
2022-10-12T05:28:49.831Z,13.00
2022-10-12T05:29:10.389Z,14.80
2022-10-12T05:29:30.969Z,13.90
2022-10-12T05:29:51.548Z,11.60
2022-10-12T05:30:12.131Z,12.20
2022-10-12T05:30:32.531Z,12.30
2022-10-12T05:30:53.108Z,11.60
2022-10-12T05:31:13.693Z,12.20
2022-10-12T05:31:34.274Z,12.20
2022-10-12T05:31:54.872Z,11.40
2022-10-12T05:32:15.476Z,14.30
2022-10-12T05:32:36.310Z,13.80
2022-10-12T05:32:57.069Z,12.20
2022-10-12T05:33:17.655Z,12.90
2022-10-12T05:33:38.049Z,14.60
2022-10-12T05:33:58.628Z,16.80
2022-10-12T05:34:19.212Z,15.00
2022-10-12T05:34:39.794Z,11.70
2022-10-12T05:35:00.376Z,12.50
2022-10-12T05:35:20.956Z,12.80
2022-10-12T05:35:46.625Z,14.70
2022-10-12T05:36:01.944Z,16.20
2022-10-12T05:36:22.337Z,13.40
2022-10-12T05:36:42.926Z,12.90
2022-10-12T05:37:03.514Z,11.70
2022-10-12T05:37:24.100Z,13.50
2022-10-12T05:37:44.672Z,13.50
2022-10-12T05:38:05.257Z,12.80
2022-10-12T05:38:25.843Z,12.60
2022-10-12T05:38:46.425Z,10.60
2022-10-12T05:39:07.007Z,11.50
2022-10-12T05:39:27.591Z,12.20
2022-10-12T05:39:48.169Z,16.20
2022-10-12T05:40:08.751Z,15.70
2022-10-12T05:40:29.339Z,13.40
2022-10-12T05:40:49.912Z,13.80
2022-10-12T05:41:10.492Z,11.80
2022-10-12T05:41:30.896Z,13.20
2022-10-12T05:41:51.489Z,14.40
2022-10-12T05:42:12.067Z,13.30
2022-10-12T05:42:32.647Z,14.20
2022-10-12T05:42:53.230Z,15.90
2022-10-12T05:43:13.813Z,14.30
2022-10-12T05:43:34.396Z,13.60
2022-10-12T05:43:54.976Z,12.00
2022-10-12T05:44:15.579Z,16.00
2022-10-12T05:44:36.136Z,13.90
2022-10-12T05:44:56.718Z,15.50
2022-10-12T05:45:17.298Z,14.20
2022-10-12T05:45:37.887Z,13.30
2022-10-12T05:45:58.470Z,11.10
2022-10-12T05:46:19.060Z,13.60
2022-10-12T05:46:39.642Z,14.10
2022-10-12T05:47:00.256Z,13.40
2022-10-12T05:47:20.843Z,11.40
2022-10-12T05:47:41.486Z,14.10
2022-10-12T05:48:02.045Z,14.10
2022-10-12T05:48:22.626Z,11.40
2022-10-12T05:48:43.205Z,12.60
2022-10-12T05:49:03.791Z,14.40
2022-10-12T05:49:24.376Z,14.50
2022-10-12T05:49:44.960Z,13.00
2022-10-12T05:50:05.546Z,11.30
2022-10-12T05:50:26.122Z,13.00
2022-10-12T05:50:46.707Z,15.10
2022-10-12T05:51:07.284Z,15.50
2022-10-12T05:51:29.049Z,14.70
2022-10-12T05:51:48.083Z,15.70
2022-10-12T05:52:08.675Z,13.90
2022-10-12T05:52:29.255Z,15.10
2022-10-12T05:52:49.833Z,15.30
2022-10-12T05:53:10.419Z,13.10
2022-10-12T05:53:31.003Z,9.90
2022-10-12T05:53:51.591Z,11.20
2022-10-12T05:54:12.164Z,10.70
2022-10-12T05:54:32.762Z,15.70
2022-10-12T05:54:53.338Z,14.80
2022-10-12T05:55:13.920Z,11.10
2022-10-12T05:55:34.618Z,12.40
2022-10-12T05:55:55.166Z,13.60
2022-10-12T05:56:15.744Z,13.80
2022-10-12T05:56:36.330Z,13.50
2022-10-12T05:56:56.927Z,15.00
2022-10-12T05:57:17.510Z,14.10
2022-10-12T05:57:38.102Z,12.80
2022-10-12T05:57:58.686Z,13.50
2022-10-12T05:58:19.274Z,12.60
2022-10-12T05:58:39.851Z,11.90
2022-10-12T05:59:00.436Z,12.60
2022-10-12T05:59:21.016Z,13.50
2022-10-12T05:59:41.599Z,13.20
2022-10-12T06:00:02.193Z,13.40
2022-10-12T06:00:22.778Z,12.80
2022-10-12T06:00:43.176Z,12.50
2022-10-12T06:01:03.758Z,13.50
2022-10-12T06:01:24.406Z,11.90
2022-10-12T06:01:45.053Z,11.80
2022-10-12T06:02:05.721Z,10.90
2022-10-12T06:02:26.336Z,9.70
2022-10-12T06:02:46.893Z,10.90
2022-10-12T06:03:07.474Z,11.20
2022-10-12T06:03:31.541Z,11.40
2022-10-12T06:03:48.454Z,10.40
2022-10-12T06:04:09.051Z,10.20
2022-10-12T06:04:29.621Z,10.60
2022-10-12T06:04:50.208Z,12.40
2022-10-12T06:05:10.790Z,11.20
2022-10-12T06:05:31.378Z,13.60
2022-10-12T06:05:51.985Z,10.80
2022-10-12T06:06:12.574Z,10.50
2022-10-12T06:06:33.169Z,12.90
2022-10-12T06:06:53.774Z,13.30
2022-10-12T06:07:14.373Z,12.40
2022-10-12T06:07:34.950Z,11.10
2022-10-12T06:07:55.532Z,12.00
2022-10-12T06:08:16.116Z,13.30
2022-10-12T06:08:36.701Z,11.70
2022-10-12T06:08:57.284Z,10.10
2022-10-12T06:09:17.867Z,11.60
2022-10-12T06:09:38.448Z,15.40
2022-10-12T06:09:59.028Z,13.60
2022-10-12T06:10:19.422Z,13.30
2022-10-12T06:10:40.046Z,13.10
2022-10-12T06:11:00.617Z,12.40
2022-10-12T06:11:21.202Z,12.30
2022-10-12T06:11:41.791Z,10.70
2022-10-12T06:12:02.380Z,13.70
2022-10-12T06:12:22.961Z,14.30
2022-10-12T06:12:43.540Z,14.90
2022-10-12T06:13:04.131Z,11.20
2022-10-12T06:13:24.713Z,14.70
2022-10-12T06:13:45.298Z,15.10
2022-10-12T06:14:05.875Z,14.10
2022-10-12T06:14:26.461Z,13.10
2022-10-12T06:14:47.042Z,11.00
2022-10-12T06:15:07.628Z,11.40
2022-10-12T06:15:28.205Z,11.30
2022-10-12T06:15:48.789Z,12.80
2022-10-12T06:16:09.372Z,11.30
2022-10-12T06:16:29.957Z,14.60
2022-10-12T06:16:53.807Z,12.50
2022-10-12T06:17:15.267Z,14.20
2022-10-12T06:17:35.879Z,13.40
2022-10-12T06:17:56.435Z,12.60
2022-10-12T06:18:17.019Z,14.70
2022-10-12T06:18:37.606Z,15.20
2022-10-12T06:18:58.187Z,15.10
2022-10-12T06:19:18.769Z,13.60
2022-10-12T06:19:39.352Z,13.80
2022-10-12T06:19:59.938Z,12.60
2022-10-12T06:20:20.515Z,12.90
2022-10-12T06:20:41.103Z,13.10
2022-10-12T06:21:21.512Z,11.90
2022-10-12T06:21:32.889Z,11.90
2022-10-12T06:21:42.481Z,12.90
2022-10-12T06:22:03.079Z,11.80
2022-10-12T06:22:23.661Z,15.20
2022-10-12T06:22:44.243Z,12.80
2022-10-12T06:23:04.823Z,11.50
2022-10-12T06:23:25.411Z,14.40
2022-10-12T06:23:45.992Z,14.60
2022-10-12T06:24:06.571Z,13.70
2022-10-12T06:24:26.968Z,11.00
2022-10-12T06:24:47.552Z,13.30
2022-10-12T06:25:08.126Z,14.30
2022-10-12T06:25:28.719Z,12.50
2022-10-12T06:25:49.295Z,13.30
2022-10-12T06:26:09.877Z,14.20